sensor_id;sensor_type;location;lat;lon;timestamp;P1;durP1;ratioP1;P2;durP2;ratioP2
77350;SDS011;66420;50.246;14.320;2023-03-14T00:01:53;19.27;;;9.50;;
77350;SDS011;66420;50.246;14.320;2023-03-14T00:04:37;17.02;;;9.10;;
77350;SDS011;66420;50.246;14.320;2023-03-14T00:07:22;17.63;;;9.57;;
77350;SDS011;66420;50.246;14.320;2023-03-14T00:10:10;17.40;;;7.82;;
77350;SDS011;66420;50.246;14.320;2023-03-14T00:12:56;18.40;;;8.98;;
77350;SDS011;66420;50.246;14.320;2023-03-14T00:15:41;14.13;;;7.95;;
77350;SDS011;66420;50.246;14.320;2023-03-14T00:18:25;15.60;;;8.30;;
77350;SDS011;66420;50.246;14.320;2023-03-14T00:21:10;13.32;;;7.65;;
77350;SDS011;66420;50.246;14.320;2023-03-14T00:23:55;15.85;;;9.15;;
77350;SDS011;66420;50.246;14.320;2023-03-14T00:26:39;16.17;;;8.75;;
77350;SDS011;66420;50.246;14.320;2023-03-14T00:29:24;20.40;;;10.15;;
77350;SDS011;66420;50.246;14.320;2023-03-14T00:32:08;15.52;;;8.55;;
77350;SDS011;66420;50.246;14.320;2023-03-14T00:34:53;21.98;;;10.88;;
77350;SDS011;66420;50.246;14.320;2023-03-14T00:37:38;22.10;;;10.65;;
77350;SDS011;66420;50.246;14.320;2023-03-14T00:40:22;19.38;;;10.15;;
77350;SDS011;66420;50.246;14.320;2023-03-14T00:43:07;24.92;;;9.77;;
77350;SDS011;66420;50.246;14.320;2023-03-14T00:45:52;22.38;;;10.75;;
77350;SDS011;66420;50.246;14.320;2023-03-14T00:48:37;20.38;;;10.15;;
77350;SDS011;66420;50.246;14.320;2023-03-14T00:51:22;16.13;;;7.97;;
77350;SDS011;66420;50.246;14.320;2023-03-14T00:54:07;16.58;;;7.80;;
77350;SDS011;66420;50.246;14.320;2023-03-14T00:56:51;17.10;;;7.50;;
77350;SDS011;66420;50.246;14.320;2023-03-14T00:59:36;13.60;;;7.00;;
77350;SDS011;66420;50.246;14.320;2023-03-14T01:02:20;18.52;;;7.85;;
77350;SDS011;66420;50.246;14.320;2023-03-14T01:05:05;14.57;;;7.10;;
77350;SDS011;66420;50.246;14.320;2023-03-14T01:07:51;15.65;;;7.78;;
77350;SDS011;66420;50.246;14.320;2023-03-14T01:10:39;18.63;;;7.63;;
77350;SDS011;66420;50.246;14.320;2023-03-14T01:13:25;14.30;;;6.95;;
77350;SDS011;66420;50.246;14.320;2023-03-14T01:16:10;16.67;;;7.20;;
77350;SDS011;66420;50.246;14.320;2023-03-14T01:18:56;13.85;;;6.63;;
77350;SDS011;66420;50.246;14.320;2023-03-14T01:21:41;13.55;;;6.70;;
77350;SDS011;66420;50.246;14.320;2023-03-14T01:24:25;12.07;;;6.57;;
77350;SDS011;66420;50.246;14.320;2023-03-14T01:27:10;15.52;;;7.60;;
77350;SDS011;66420;50.246;14.320;2023-03-14T01:29:55;11.93;;;6.63;;
77350;SDS011;66420;50.246;14.320;2023-03-14T01:32:40;16.42;;;7.18;;
77350;SDS011;66420;50.246;14.320;2023-03-14T01:35:25;11.57;;;5.93;;
77350;SDS011;66420;50.246;14.320;2023-03-14T01:38:09;16.52;;;6.30;;
77350;SDS011;66420;50.246;14.320;2023-03-14T01:40:54;13.05;;;6.22;;
77350;SDS011;66420;50.246;14.320;2023-03-14T01:43:39;20.52;;;6.60;;
77350;SDS011;66420;50.246;14.320;2023-03-14T01:46:37;19.33;;;8.10;;
77350;SDS011;66420;50.246;14.320;2023-03-14T01:49:26;18.35;;;7.65;;
77350;SDS011;66420;50.246;14.320;2023-03-14T01:52:19;12.80;;;6.35;;
77350;SDS011;66420;50.246;14.320;2023-03-14T01:55:06;16.67;;;6.35;;
77350;SDS011;66420;50.246;14.320;2023-03-14T01:58:00;11.75;;;5.72;;
77350;SDS011;66420;50.246;14.320;2023-03-14T02:00:47;14.07;;;7.05;;
77350;SDS011;66420;50.246;14.320;2023-03-14T02:03:32;13.77;;;7.03;;
77350;SDS011;66420;50.246;14.320;2023-03-14T02:06:24;12.80;;;6.28;;
77350;SDS011;66420;50.246;14.320;2023-03-14T02:09:13;14.75;;;6.82;;
77350;SDS011;66420;50.246;14.320;2023-03-14T02:11:58;16.15;;;7.72;;
77350;SDS011;66420;50.246;14.320;2023-03-14T02:14:43;20.05;;;7.82;;
77350;SDS011;66420;50.246;14.320;2023-03-14T02:17:32;15.38;;;6.47;;
77350;SDS011;66420;50.246;14.320;2023-03-14T02:23:12;14.85;;;8.40;;
77350;SDS011;66420;50.246;14.320;2023-03-14T02:26:01;18.52;;;8.50;;
77350;SDS011;66420;50.246;14.320;2023-03-14T02:28:52;16.00;;;8.65;;
77350;SDS011;66420;50.246;14.320;2023-03-14T02:31:38;14.82;;;7.15;;
77350;SDS011;66420;50.246;14.320;2023-03-14T02:34:23;14.02;;;6.85;;
77350;SDS011;66420;50.246;14.320;2023-03-14T02:37:09;16.17;;;7.95;;
77350;SDS011;66420;50.246;14.320;2023-03-14T02:39:55;17.13;;;8.57;;
77350;SDS011;66420;50.246;14.320;2023-03-14T02:42:40;14.13;;;8.02;;
77350;SDS011;66420;50.246;14.320;2023-03-14T02:48:26;13.32;;;7.25;;
77350;SDS011;66420;50.246;14.320;2023-03-14T02:51:14;18.55;;;8.40;;
77350;SDS011;66420;50.246;14.320;2023-03-14T02:53:59;13.98;;;6.88;;
77350;SDS011;66420;50.246;14.320;2023-03-14T02:56:45;14.80;;;7.70;;
77350;SDS011;66420;50.246;14.320;2023-03-14T02:59:29;15.00;;;7.32;;
77350;SDS011;66420;50.246;14.320;2023-03-14T03:02:14;17.52;;;7.90;;
77350;SDS011;66420;50.246;14.320;2023-03-14T03:04:59;17.52;;;8.25;;
77350;SDS011;66420;50.246;14.320;2023-03-14T03:07:43;14.45;;;7.10;;
77350;SDS011;66420;50.246;14.320;2023-03-14T03:10:28;13.23;;;6.97;;
77350;SDS011;66420;50.246;14.320;2023-03-14T03:13:13;14.88;;;7.20;;
77350;SDS011;66420;50.246;14.320;2023-03-14T03:15:59;16.38;;;6.95;;
77350;SDS011;66420;50.246;14.320;2023-03-14T03:18:43;12.98;;;6.88;;
77350;SDS011;66420;50.246;14.320;2023-03-14T03:21:28;14.77;;;7.38;;
77350;SDS011;66420;50.246;14.320;2023-03-14T03:24:16;15.63;;;7.10;;
77350;SDS011;66420;50.246;14.320;2023-03-14T03:27:01;17.48;;;6.85;;
77350;SDS011;66420;50.246;14.320;2023-03-14T03:29:45;17.50;;;6.75;;
77350;SDS011;66420;50.246;14.320;2023-03-14T03:32:31;17.30;;;6.72;;
77350;SDS011;66420;50.246;14.320;2023-03-14T03:35:16;14.95;;;7.05;;
77350;SDS011;66420;50.246;14.320;2023-03-14T03:38:00;16.23;;;6.57;;
77350;SDS011;66420;50.246;14.320;2023-03-14T03:40:45;13.73;;;6.75;;
77350;SDS011;66420;50.246;14.320;2023-03-14T03:43:30;11.32;;;6.88;;
77350;SDS011;66420;50.246;14.320;2023-03-14T03:46:14;14.48;;;7.40;;
77350;SDS011;66420;50.246;14.320;2023-03-14T03:48:59;14.23;;;8.20;;
77350;SDS011;66420;50.246;14.320;2023-03-14T03:51:44;17.33;;;7.70;;
77350;SDS011;66420;50.246;14.320;2023-03-14T03:54:29;17.88;;;8.82;;
77350;SDS011;66420;50.246;14.320;2023-03-14T03:57:14;16.98;;;7.55;;
77350;SDS011;66420;50.246;14.320;2023-03-14T03:59:59;13.52;;;7.90;;
77350;SDS011;66420;50.246;14.320;2023-03-14T04:02:44;14.98;;;8.13;;
77350;SDS011;66420;50.246;14.320;2023-03-14T04:05:28;18.77;;;8.43;;
77350;SDS011;66420;50.246;14.320;2023-03-14T04:08:13;16.40;;;6.93;;
77350;SDS011;66420;50.246;14.320;2023-03-14T04:10:58;15.98;;;6.78;;
77350;SDS011;66420;50.246;14.320;2023-03-14T04:13:44;18.13;;;8.38;;
77350;SDS011;66420;50.246;14.320;2023-03-14T04:16:29;17.17;;;8.23;;
77350;SDS011;66420;50.246;14.320;2023-03-14T04:19:15;29.27;;;10.10;;
77350;SDS011;66420;50.246;14.320;2023-03-14T04:22:00;26.83;;;11.63;;
77350;SDS011;66420;50.246;14.320;2023-03-14T04:24:44;25.20;;;10.40;;
77350;SDS011;66420;50.246;14.320;2023-03-14T04:27:29;19.05;;;8.95;;
77350;SDS011;66420;50.246;14.320;2023-03-14T04:30:14;25.00;;;9.52;;
77350;SDS011;66420;50.246;14.320;2023-03-14T04:32:58;24.23;;;9.82;;
77350;SDS011;66420;50.246;14.320;2023-03-14T04:35:43;20.98;;;9.57;;
77350;SDS011;66420;50.246;14.320;2023-03-14T04:38:29;21.63;;;8.88;;
77350;SDS011;66420;50.246;14.320;2023-03-14T04:41:14;25.92;;;11.02;;
77350;SDS011;66420;50.246;14.320;2023-03-14T04:43:58;23.10;;;11.20;;
77350;SDS011;66420;50.246;14.320;2023-03-14T04:46:43;20.50;;;9.38;;
77350;SDS011;66420;50.246;14.320;2023-03-14T04:49:27;26.48;;;11.35;;
77350;SDS011;66420;50.246;14.320;2023-03-14T04:52:12;22.63;;;10.27;;
77350;SDS011;66420;50.246;14.320;2023-03-14T04:54:56;22.00;;;10.70;;
77350;SDS011;66420;50.246;14.320;2023-03-14T04:57:41;19.45;;;10.07;;
77350;SDS011;66420;50.246;14.320;2023-03-14T05:00:26;21.38;;;9.82;;
77350;SDS011;66420;50.246;14.320;2023-03-14T05:03:11;21.02;;;8.55;;
77350;SDS011;66420;50.246;14.320;2023-03-14T05:05:56;17.23;;;8.02;;
77350;SDS011;66420;50.246;14.320;2023-03-14T05:08:41;13.65;;;6.13;;
77350;SDS011;66420;50.246;14.320;2023-03-14T05:11:26;14.13;;;6.13;;
77350;SDS011;66420;50.246;14.320;2023-03-14T05:14:11;10.65;;;4.90;;
77350;SDS011;66420;50.246;14.320;2023-03-14T05:16:55;9.30;;;3.90;;
77350;SDS011;66420;50.246;14.320;2023-03-14T05:19:40;12.35;;;3.17;;
77350;SDS011;66420;50.246;14.320;2023-03-14T05:22:25;6.15;;;2.80;;
77350;SDS011;66420;50.246;14.320;2023-03-14T05:25:10;5.82;;;2.53;;
77350;SDS011;66420;50.246;14.320;2023-03-14T05:27:55;4.57;;;2.40;;
77350;SDS011;66420;50.246;14.320;2023-03-14T05:30:40;3.60;;;1.50;;
77350;SDS011;66420;50.246;14.320;2023-03-14T05:33:25;3.60;;;1.60;;
77350;SDS011;66420;50.246;14.320;2023-03-14T05:36:09;3.45;;;1.30;;
77350;SDS011;66420;50.246;14.320;2023-03-14T05:38:55;1.92;;;0.93;;
77350;SDS011;66420;50.246;14.320;2023-03-14T05:41:40;3.35;;;1.10;;
77350;SDS011;66420;50.246;14.320;2023-03-14T05:44:24;2.63;;;1.00;;
77350;SDS011;66420;50.246;14.320;2023-03-14T05:47:09;1.48;;;0.80;;
77350;SDS011;66420;50.246;14.320;2023-03-14T05:49:54;2.00;;;0.88;;
77350;SDS011;66420;50.246;14.320;2023-03-14T05:52:38;1.20;;;0.70;;
77350;SDS011;66420;50.246;14.320;2023-03-14T05:55:23;1.35;;;0.60;;
77350;SDS011;66420;50.246;14.320;2023-03-14T05:58:07;2.17;;;0.80;;
77350;SDS011;66420;50.246;14.320;2023-03-14T06:00:52;2.15;;;1.08;;
77350;SDS011;66420;50.246;14.320;2023-03-14T06:03:37;3.85;;;0.95;;
77350;SDS011;66420;50.246;14.320;2023-03-14T06:06:22;1.05;;;0.65;;
77350;SDS011;66420;50.246;14.320;2023-03-14T06:09:06;2.05;;;0.70;;
77350;SDS011;66420;50.246;14.320;2023-03-14T06:11:51;1.77;;;0.60;;
77350;SDS011;66420;50.246;14.320;2023-03-14T06:14:36;1.38;;;0.60;;
77350;SDS011;66420;50.246;14.320;2023-03-14T06:17:20;1.48;;;0.70;;
77350;SDS011;66420;50.246;14.320;2023-03-14T06:20:05;1.77;;;0.70;;
77350;SDS011;66420;50.246;14.320;2023-03-14T06:22:50;1.52;;;0.57;;
77350;SDS011;66420;50.246;14.320;2023-03-14T06:25:34;0.80;;;0.50;;
77350;SDS011;66420;50.246;14.320;2023-03-14T06:28:19;1.25;;;0.60;;
77350;SDS011;66420;50.246;14.320;2023-03-14T06:31:04;1.95;;;0.70;;
77350;SDS011;66420;50.246;14.320;2023-03-14T06:33:49;1.27;;;0.70;;
77350;SDS011;66420;50.246;14.320;2023-03-14T06:36:34;3.22;;;0.75;;
77350;SDS011;66420;50.246;14.320;2023-03-14T06:39:19;2.63;;;0.80;;
77350;SDS011;66420;50.246;14.320;2023-03-14T06:42:04;2.10;;;0.90;;
77350;SDS011;66420;50.246;14.320;2023-03-14T06:44:49;3.65;;;1.10;;
77350;SDS011;66420;50.246;14.320;2023-03-14T06:47:34;1.80;;;0.70;;
77350;SDS011;66420;50.246;14.320;2023-03-14T06:50:18;2.55;;;0.90;;
77350;SDS011;66420;50.246;14.320;2023-03-14T06:53:03;3.00;;;1.00;;
77350;SDS011;66420;50.246;14.320;2023-03-14T06:55:47;4.50;;;0.90;;
77350;SDS011;66420;50.246;14.320;2023-03-14T06:58:32;1.77;;;0.65;;
77350;SDS011;66420;50.246;14.320;2023-03-14T07:01:20;3.78;;;0.90;;
77350;SDS011;66420;50.246;14.320;2023-03-14T07:04:08;4.05;;;0.98;;
77350;SDS011;66420;50.246;14.320;2023-03-14T07:06:53;1.77;;;0.70;;
77350;SDS011;66420;50.246;14.320;2023-03-14T07:09:38;4.13;;;0.80;;
77350;SDS011;66420;50.246;14.320;2023-03-14T07:12:22;1.10;;;0.60;;
77350;SDS011;66420;50.246;14.320;2023-03-14T07:15:07;1.70;;;0.70;;
77350;SDS011;66420;50.246;14.320;2023-03-14T07:17:52;2.40;;;0.68;;
77350;SDS011;66420;50.246;14.320;2023-03-14T07:20:36;1.27;;;0.50;;
77350;SDS011;66420;50.246;14.320;2023-03-14T07:23:21;2.97;;;0.63;;
77350;SDS011;66420;50.246;14.320;2023-03-14T07:26:06;1.70;;;0.57;;
77350;SDS011;66420;50.246;14.320;2023-03-14T07:28:51;2.15;;;0.50;;
77350;SDS011;66420;50.246;14.320;2023-03-14T07:31:35;1.38;;;0.52;;
77350;SDS011;66420;50.246;14.320;2023-03-14T07:34:20;3.10;;;0.60;;
77350;SDS011;66420;50.246;14.320;2023-03-14T07:37:05;1.35;;;0.70;;
77350;SDS011;66420;50.246;14.320;2023-03-14T07:39:49;3.15;;;0.70;;
77350;SDS011;66420;50.246;14.320;2023-03-14T07:42:34;4.10;;;0.82;;
77350;SDS011;66420;50.246;14.320;2023-03-14T07:45:18;2.78;;;0.60;;
77350;SDS011;66420;50.246;14.320;2023-03-14T07:48:03;1.13;;;0.50;;
77350;SDS011;66420;50.246;14.320;2023-03-14T07:50:48;2.67;;;0.80;;
77350;SDS011;66420;50.246;14.320;2023-03-14T07:53:34;0.85;;;0.50;;
77350;SDS011;66420;50.246;14.320;2023-03-14T07:56:18;2.83;;;0.70;;
77350;SDS011;66420;50.246;14.320;2023-03-14T07:59:03;1.90;;;0.73;;
77350;SDS011;66420;50.246;14.320;2023-03-14T08:01:48;5.05;;;0.90;;
77350;SDS011;66420;50.246;14.320;2023-03-14T08:04:32;1.90;;;0.70;;
77350;SDS011;66420;50.246;14.320;2023-03-14T08:07:17;2.25;;;0.75;;
77350;SDS011;66420;50.246;14.320;2023-03-14T08:10:02;1.80;;;0.70;;
77350;SDS011;66420;50.246;14.320;2023-03-14T08:12:48;1.83;;;0.82;;
77350;SDS011;66420;50.246;14.320;2023-03-14T08:15:34;1.02;;;0.60;;
77350;SDS011;66420;50.246;14.320;2023-03-14T08:18:19;5.40;;;0.70;;
77350;SDS011;66420;50.246;14.320;2023-03-14T08:21:04;2.15;;;0.65;;
77350;SDS011;66420;50.246;14.320;2023-03-14T08:23:49;1.45;;;0.60;;
77350;SDS011;66420;50.246;14.320;2023-03-14T08:26:33;2.45;;;0.65;;
77350;SDS011;66420;50.246;14.320;2023-03-14T08:29:18;2.25;;;0.70;;
77350;SDS011;66420;50.246;14.320;2023-03-14T08:32:03;0.98;;;0.55;;
77350;SDS011;66420;50.246;14.320;2023-03-14T08:34:48;3.13;;;0.60;;
77350;SDS011;66420;50.246;14.320;2023-03-14T08:37:33;3.60;;;0.60;;
77350;SDS011;66420;50.246;14.320;2023-03-14T08:40:19;2.30;;;0.70;;
77350;SDS011;66420;50.246;14.320;2023-03-14T08:43:04;1.60;;;0.70;;
77350;SDS011;66420;50.246;14.320;2023-03-14T08:45:49;2.53;;;0.70;;
77350;SDS011;66420;50.246;14.320;2023-03-14T08:48:33;2.80;;;0.80;;
77350;SDS011;66420;50.246;14.320;2023-03-14T08:51:19;2.05;;;0.70;;
77350;SDS011;66420;50.246;14.320;2023-03-14T08:54:04;1.60;;;0.50;;
77350;SDS011;66420;50.246;14.320;2023-03-14T08:56:49;1.25;;;0.60;;
77350;SDS011;66420;50.246;14.320;2023-03-14T08:59:34;1.33;;;0.60;;
77350;SDS011;66420;50.246;14.320;2023-03-14T09:02:19;2.33;;;0.65;;
77350;SDS011;66420;50.246;14.320;2023-03-14T09:05:04;2.35;;;0.70;;
77350;SDS011;66420;50.246;14.320;2023-03-14T09:07:50;2.45;;;0.90;;
77350;SDS011;66420;50.246;14.320;2023-03-14T09:10:34;1.08;;;0.68;;
77350;SDS011;66420;50.246;14.320;2023-03-14T09:13:19;2.58;;;0.60;;
77350;SDS011;66420;50.246;14.320;2023-03-14T09:16:04;3.90;;;0.80;;
77350;SDS011;66420;50.246;14.320;2023-03-14T09:18:49;2.13;;;0.68;;
77350;SDS011;66420;50.246;14.320;2023-03-14T09:21:33;2.10;;;0.80;;
77350;SDS011;66420;50.246;14.320;2023-03-14T09:24:18;2.08;;;0.65;;
77350;SDS011;66420;50.246;14.320;2023-03-14T09:27:03;1.90;;;0.60;;
77350;SDS011;66420;50.246;14.320;2023-03-14T09:29:47;1.25;;;0.52;;
77350;SDS011;66420;50.246;14.320;2023-03-14T09:32:32;5.18;;;1.10;;
77350;SDS011;66420;50.246;14.320;2023-03-14T09:35:16;2.25;;;0.63;;
77350;SDS011;66420;50.246;14.320;2023-03-14T09:38:02;1.30;;;0.70;;
77350;SDS011;66420;50.246;14.320;2023-03-14T09:40:47;5.20;;;0.60;;
77350;SDS011;66420;50.246;14.320;2023-03-14T09:43:33;2.65;;;0.70;;
77350;SDS011;66420;50.246;14.320;2023-03-14T09:46:20;1.55;;;0.57;;
77350;SDS011;66420;50.246;14.320;2023-03-14T09:49:09;2.30;;;0.80;;
77350;SDS011;66420;50.246;14.320;2023-03-14T09:51:58;2.22;;;0.70;;
77350;SDS011;66420;50.246;14.320;2023-03-14T09:54:58;2.38;;;0.60;;
77350;SDS011;66420;50.246;14.320;2023-03-14T09:57:47;1.00;;;0.57;;
77350;SDS011;66420;50.246;14.320;2023-03-14T10:00:34;1.85;;;0.70;;
77350;SDS011;66420;50.246;14.320;2023-03-14T10:03:24;3.33;;;0.60;;
77350;SDS011;66420;50.246;14.320;2023-03-14T10:06:14;5.65;;;0.80;;
77350;SDS011;66420;50.246;14.320;2023-03-14T10:08:59;4.93;;;0.80;;
77350;SDS011;66420;50.246;14.320;2023-03-14T10:11:45;2.65;;;0.65;;
77350;SDS011;66420;50.246;14.320;2023-03-14T10:14:31;4.47;;;0.88;;
77350;SDS011;66420;50.246;14.320;2023-03-14T10:17:18;4.88;;;0.65;;
77350;SDS011;66420;50.246;14.320;2023-03-14T10:20:04;3.40;;;0.82;;
77350;SDS011;66420;50.246;14.320;2023-03-14T10:22:49;1.95;;;0.70;;
77350;SDS011;66420;50.246;14.320;2023-03-14T10:25:36;2.58;;;1.05;;
77350;SDS011;66420;50.246;14.320;2023-03-14T10:31:14;4.70;;;0.90;;
77350;SDS011;66420;50.246;14.320;2023-03-14T10:34:01;1.55;;;0.73;;
77350;SDS011;66420;50.246;14.320;2023-03-14T10:36:51;3.90;;;0.70;;
77350;SDS011;66420;50.246;14.320;2023-03-14T10:42:29;6.22;;;0.90;;
77350;SDS011;66420;50.246;14.320;2023-03-14T10:45:36;2.65;;;0.88;;
77350;SDS011;66420;50.246;14.320;2023-03-14T10:48:33;2.05;;;0.80;;
77350;SDS011;66420;50.246;14.320;2023-03-14T10:51:28;3.05;;;0.90;;
77350;SDS011;66420;50.246;14.320;2023-03-14T10:54:15;1.63;;;0.70;;
77350;SDS011;66420;50.246;14.320;2023-03-14T10:57:05;2.97;;;0.80;;
77350;SDS011;66420;50.246;14.320;2023-03-14T10:59:50;1.63;;;0.60;;
77350;SDS011;66420;50.246;14.320;2023-03-14T11:02:48;3.60;;;0.70;;
77350;SDS011;66420;50.246;14.320;2023-03-14T11:05:53;1.95;;;1.05;;
77350;SDS011;66420;50.246;14.320;2023-03-14T11:08:51;2.05;;;0.80;;
77350;SDS011;66420;50.246;14.320;2023-03-14T11:11:49;3.03;;;0.73;;
77350;SDS011;66420;50.246;14.320;2023-03-14T11:14:38;5.03;;;0.85;;
77350;SDS011;66420;50.246;14.320;2023-03-14T11:17:41;2.33;;;0.63;;
77350;SDS011;66420;50.246;14.320;2023-03-14T11:21:12;6.82;;;1.77;;
77350;SDS011;66420;50.246;14.320;2023-03-14T11:30:33;2.72;;;0.85;;
77350;SDS011;66420;50.246;14.320;2023-03-14T11:36:21;2.22;;;0.70;;
77350;SDS011;66420;50.246;14.320;2023-03-14T11:39:19;2.58;;;0.68;;
77350;SDS011;66420;50.246;14.320;2023-03-14T11:42:05;1.35;;;0.60;;
77350;SDS011;66420;50.246;14.320;2023-03-14T11:44:56;4.53;;;1.00;;
77350;SDS011;66420;50.246;14.320;2023-03-14T11:47:43;1.85;;;0.80;;
77350;SDS011;66420;50.246;14.320;2023-03-14T11:50:35;2.85;;;0.90;;
77350;SDS011;66420;50.246;14.320;2023-03-14T11:53:22;1.67;;;0.70;;
77350;SDS011;66420;50.246;14.320;2023-03-14T11:56:19;2.30;;;0.85;;
77350;SDS011;66420;50.246;14.320;2023-03-14T11:59:14;1.50;;;0.80;;
77350;SDS011;66420;50.246;14.320;2023-03-14T12:02:03;1.92;;;0.80;;
77350;SDS011;66420;50.246;14.320;2023-03-14T12:10:38;2.78;;;0.68;;
77350;SDS011;66420;50.246;14.320;2023-03-14T12:13:31;4.65;;;0.70;;
77350;SDS011;66420;50.246;14.320;2023-03-14T12:16:26;3.67;;;0.85;;
77350;SDS011;66420;50.246;14.320;2023-03-14T12:25:13;2.95;;;1.23;;
77350;SDS011;66420;50.246;14.320;2023-03-14T12:28:03;2.85;;;0.80;;
77350;SDS011;66420;50.246;14.320;2023-03-14T12:45:43;3.22;;;1.00;;
77350;SDS011;66420;50.246;14.320;2023-03-14T12:51:44;4.00;;;1.10;;
77350;SDS011;66420;50.246;14.320;2023-03-14T12:57:42;3.25;;;1.00;;
77350;SDS011;66420;50.246;14.320;2023-03-14T13:00:33;2.88;;;1.30;;
77350;SDS011;66420;50.246;14.320;2023-03-14T13:03:21;4.05;;;0.70;;
77350;SDS011;66420;50.246;14.320;2023-03-14T13:06:11;1.92;;;0.80;;
77350;SDS011;66420;50.246;14.320;2023-03-14T13:12:19;1.80;;;0.82;;
77350;SDS011;66420;50.246;14.320;2023-03-14T13:15:26;2.42;;;0.85;;
77350;SDS011;66420;50.246;14.320;2023-03-14T13:18:45;1.35;;;0.60;;
77350;SDS011;66420;50.246;14.320;2023-03-14T13:21:26;3.72;;;0.70;;
77350;SDS011;66420;50.246;14.320;2023-03-14T13:24:22;5.47;;;0.65;;
77350;SDS011;66420;50.246;14.320;2023-03-14T13:27:15;1.83;;;0.57;;
77350;SDS011;66420;50.246;14.320;2023-03-14T13:33:03;1.90;;;0.70;;
77350;SDS011;66420;50.246;14.320;2023-03-14T13:35:53;2.05;;;0.57;;
77350;SDS011;66420;50.246;14.320;2023-03-14T13:38:42;1.50;;;0.75;;
77350;SDS011;66420;50.246;14.320;2023-03-14T13:41:27;2.60;;;1.00;;
77350;SDS011;66420;50.246;14.320;2023-03-14T13:44:26;3.28;;;1.30;;
77350;SDS011;66420;50.246;14.320;2023-03-14T13:47:17;1.75;;;0.73;;
77350;SDS011;66420;50.246;14.320;2023-03-14T13:50:03;1.27;;;0.60;;
77350;SDS011;66420;50.246;14.320;2023-03-14T13:52:50;2.78;;;0.88;;
77350;SDS011;66420;50.246;14.320;2023-03-14T13:55:42;2.42;;;0.90;;
77350;SDS011;66420;50.246;14.320;2023-03-14T13:58:28;2.83;;;0.80;;
77350;SDS011;66420;50.246;14.320;2023-03-14T14:01:32;3.58;;;1.45;;
77350;SDS011;66420;50.246;14.320;2023-03-14T14:04:19;2.60;;;0.68;;
77350;SDS011;66420;50.246;14.320;2023-03-14T14:07:08;3.25;;;1.00;;
77350;SDS011;66420;50.246;14.320;2023-03-14T14:09:57;1.80;;;0.75;;
77350;SDS011;66420;50.246;14.320;2023-03-14T14:15:37;2.97;;;0.80;;
77350;SDS011;66420;50.246;14.320;2023-03-14T14:18:27;2.58;;;1.05;;
77350;SDS011;66420;50.246;14.320;2023-03-14T14:21:13;2.60;;;0.85;;
77350;SDS011;66420;50.246;14.320;2023-03-14T14:23:58;2.55;;;1.20;;
77350;SDS011;66420;50.246;14.320;2023-03-14T14:26:50;1.98;;;0.90;;
77350;SDS011;66420;50.246;14.320;2023-03-14T14:29:37;1.58;;;0.60;;
77350;SDS011;66420;50.246;14.320;2023-03-14T14:32:21;1.30;;;0.60;;
77350;SDS011;66420;50.246;14.320;2023-03-14T14:35:08;1.25;;;0.63;;
77350;SDS011;66420;50.246;14.320;2023-03-14T14:37:55;1.15;;;0.57;;
77350;SDS011;66420;50.246;14.320;2023-03-14T14:40:50;1.38;;;0.60;;
77350;SDS011;66420;50.246;14.320;2023-03-14T14:43:38;1.83;;;0.80;;
77350;SDS011;66420;50.246;14.320;2023-03-14T14:46:25;2.20;;;0.70;;
77350;SDS011;66420;50.246;14.320;2023-03-14T14:51:42;1.45;;;0.50;;
77350;SDS011;66420;50.246;14.320;2023-03-14T14:57:05;1.52;;;0.63;;
77350;SDS011;66420;50.246;14.320;2023-03-14T15:00:01;1.50;;;0.50;;
77350;SDS011;66420;50.246;14.320;2023-03-14T15:02:51;0.80;;;0.47;;
77350;SDS011;66420;50.246;14.320;2023-03-14T15:05:39;1.33;;;0.68;;
77350;SDS011;66420;50.246;14.320;2023-03-14T15:08:25;1.40;;;0.65;;
77350;SDS011;66420;50.246;14.320;2023-03-14T15:11:16;2.63;;;0.80;;
77350;SDS011;66420;50.246;14.320;2023-03-14T15:14:02;2.13;;;0.90;;
77350;SDS011;66420;50.246;14.320;2023-03-14T15:16:47;3.40;;;0.90;;
77350;SDS011;66420;50.246;14.320;2023-03-14T15:19:32;4.15;;;1.30;;
77350;SDS011;66420;50.246;14.320;2023-03-14T15:22:17;2.65;;;1.15;;
77350;SDS011;66420;50.246;14.320;2023-03-14T15:25:01;2.92;;;1.00;;
77350;SDS011;66420;50.246;14.320;2023-03-14T15:27:46;2.28;;;0.80;;
77350;SDS011;66420;50.246;14.320;2023-03-14T15:30:31;1.92;;;0.90;;
77350;SDS011;66420;50.246;14.320;2023-03-14T15:33:16;3.55;;;1.10;;
77350;SDS011;66420;50.246;14.320;2023-03-14T15:36:00;3.55;;;1.00;;
77350;SDS011;66420;50.246;14.320;2023-03-14T15:38:45;1.83;;;0.80;;
77350;SDS011;66420;50.246;14.320;2023-03-14T15:41:29;3.30;;;0.88;;
77350;SDS011;66420;50.246;14.320;2023-03-14T15:44:14;6.85;;;0.95;;
77350;SDS011;66420;50.246;14.320;2023-03-14T15:46:58;2.38;;;0.80;;
77350;SDS011;66420;50.246;14.320;2023-03-14T15:49:43;3.60;;;1.55;;
77350;SDS011;66420;50.246;14.320;2023-03-14T15:52:28;2.20;;;1.50;;
77350;SDS011;66420;50.246;14.320;2023-03-14T15:55:13;2.65;;;1.40;;
77350;SDS011;66420;50.246;14.320;2023-03-14T15:57:58;2.42;;;0.90;;
77350;SDS011;66420;50.246;14.320;2023-03-14T16:00:44;1.45;;;0.80;;
77350;SDS011;66420;50.246;14.320;2023-03-14T16:03:29;2.30;;;1.30;;
77350;SDS011;66420;50.246;14.320;2023-03-14T16:06:14;1.90;;;0.63;;
77350;SDS011;66420;50.246;14.320;2023-03-14T16:08:59;1.55;;;0.85;;
77350;SDS011;66420;50.246;14.320;2023-03-14T16:11:44;1.63;;;0.75;;
77350;SDS011;66420;50.246;14.320;2023-03-14T16:14:30;1.80;;;0.80;;
77350;SDS011;66420;50.246;14.320;2023-03-14T16:17:15;2.42;;;0.75;;
77350;SDS011;66420;50.246;14.320;2023-03-14T16:19:59;1.73;;;0.70;;
77350;SDS011;66420;50.246;14.320;2023-03-14T16:22:44;3.10;;;0.90;;
77350;SDS011;66420;50.246;14.320;2023-03-14T16:25:29;1.55;;;0.75;;
77350;SDS011;66420;50.246;14.320;2023-03-14T16:28:13;4.20;;;1.05;;
77350;SDS011;66420;50.246;14.320;2023-03-14T16:31:02;1.33;;;0.77;;
77350;SDS011;66420;50.246;14.320;2023-03-14T16:33:48;2.55;;;1.00;;
77350;SDS011;66420;50.246;14.320;2023-03-14T16:36:33;2.80;;;1.10;;
77350;SDS011;66420;50.246;14.320;2023-03-14T16:39:18;3.80;;;1.33;;
77350;SDS011;66420;50.246;14.320;2023-03-14T16:42:03;2.05;;;1.10;;
77350;SDS011;66420;50.246;14.320;2023-03-14T16:44:48;3.25;;;1.45;;
77350;SDS011;66420;50.246;14.320;2023-03-14T16:47:32;2.65;;;1.10;;
77350;SDS011;66420;50.246;14.320;2023-03-14T16:50:17;3.17;;;1.30;;
77350;SDS011;66420;50.246;14.320;2023-03-14T16:53:02;4.88;;;1.38;;
77350;SDS011;66420;50.246;14.320;2023-03-14T16:55:48;3.10;;;1.30;;
77350;SDS011;66420;50.246;14.320;2023-03-14T16:58:34;2.83;;;1.45;;
77350;SDS011;66420;50.246;14.320;2023-03-14T17:01:19;3.13;;;1.30;;
77350;SDS011;66420;50.246;14.320;2023-03-14T17:04:04;2.25;;;1.23;;
77350;SDS011;66420;50.246;14.320;2023-03-14T17:06:52;2.10;;;1.00;;
77350;SDS011;66420;50.246;14.320;2023-03-14T17:09:36;1.90;;;1.00;;
77350;SDS011;66420;50.246;14.320;2023-03-14T17:12:22;3.83;;;1.42;;
77350;SDS011;66420;50.246;14.320;2023-03-14T17:15:07;2.80;;;1.15;;
77350;SDS011;66420;50.246;14.320;2023-03-14T17:17:52;3.78;;;1.40;;
77350;SDS011;66420;50.246;14.320;2023-03-14T17:20:37;5.82;;;1.60;;
77350;SDS011;66420;50.246;14.320;2023-03-14T17:23:21;2.45;;;1.33;;
77350;SDS011;66420;50.246;14.320;2023-03-14T17:26:07;2.65;;;1.40;;
77350;SDS011;66420;50.246;14.320;2023-03-14T17:28:53;2.90;;;1.10;;
77350;SDS011;66420;50.246;14.320;2023-03-14T17:31:38;2.67;;;1.23;;
77350;SDS011;66420;50.246;14.320;2023-03-14T17:34:22;2.97;;;1.10;;